createdAt,value
2022-08-18T00:01:13.381Z,4.57
2022-08-18T00:03:55.568Z,4.60
2022-08-18T00:06:27.900Z,4.60
2022-08-18T00:08:57.133Z,5.50
2022-08-18T00:11:26.664Z,5.40
2022-08-18T00:13:54.568Z,4.83
2022-08-18T00:16:22.588Z,5.23
2022-08-18T00:18:50.616Z,4.63
2022-08-18T00:21:18.996Z,4.40
2022-08-18T00:23:46.928Z,4.63
2022-08-18T00:26:14.815Z,5.70
2022-08-18T00:28:44.077Z,4.53
2022-08-18T00:31:11.968Z,4.50
2022-08-18T00:33:39.875Z,4.37
2022-08-18T00:36:07.820Z,4.33
2022-08-18T00:38:35.699Z,4.60
2022-08-18T00:41:03.695Z,4.60
2022-08-18T00:43:40.731Z,5.10
2022-08-18T00:46:15.539Z,5.00
2022-08-18T00:48:48.843Z,4.50
2022-08-18T00:51:23.818Z,5.20
2022-08-18T00:53:58.404Z,4.60
2022-08-18T00:56:31.406Z,5.07
2022-08-18T00:59:04.839Z,4.77
2022-08-18T01:01:35.557Z,4.73
2022-08-18T01:04:08.232Z,5.10
2022-08-18T01:06:43.193Z,4.90
2022-08-18T01:09:11.329Z,4.57
2022-08-18T01:11:41.396Z,4.90
2022-08-18T01:14:11.189Z,4.93
2022-08-18T01:16:58.043Z,4.90
2022-08-18T01:19:45.258Z,5.03
2022-08-18T01:22:20.557Z,5.27
2022-08-18T01:25:09.566Z,5.30
2022-08-18T01:27:37.734Z,5.50
2022-08-18T01:30:10.460Z,5.37
2022-08-18T01:32:39.936Z,5.40
2022-08-18T01:35:10.950Z,5.77
2022-08-18T01:37:38.840Z,5.10
2022-08-18T01:41:23.095Z,5.50
2022-08-18T01:42:58.772Z,4.73
2022-08-18T01:45:26.624Z,5.03
2022-08-18T01:47:55.862Z,4.90
2022-08-18T01:50:23.763Z,4.97
2022-08-18T01:52:53.725Z,5.37
2022-08-18T01:55:23.124Z,5.10
2022-08-18T01:57:52.336Z,5.30
2022-08-18T02:00:20.965Z,5.37
2022-08-18T02:02:58.184Z,5.17
2022-08-18T02:05:34.448Z,5.33
2022-08-18T02:08:02.384Z,4.90
2022-08-18T02:10:32.575Z,5.07
2022-08-18T02:13:00.511Z,4.73
2022-08-18T02:15:29.007Z,5.10
2022-08-18T02:17:56.872Z,4.83
2022-08-18T02:20:25.336Z,5.57
2022-08-18T02:22:53.291Z,5.80
2022-08-18T02:25:21.176Z,5.23
2022-08-18T02:27:50.496Z,5.43
2022-08-18T02:30:19.970Z,5.57
2022-08-18T02:32:47.928Z,5.93
2022-08-18T02:35:15.823Z,5.87
2022-08-18T02:37:47.697Z,5.80
2022-08-18T02:40:16.802Z,5.77
2022-08-18T02:42:45.681Z,5.27
2022-08-18T02:45:15.595Z,6.20
2022-08-18T02:47:44.336Z,5.43
2022-08-18T02:50:13.348Z,5.40
2022-08-18T02:52:41.380Z,5.83
2022-08-18T02:55:10.240Z,5.37
2022-08-18T02:57:43.415Z,6.43
2022-08-18T03:00:14.671Z,5.83
2022-08-18T03:02:47.332Z,6.27
2022-08-18T03:05:15.293Z,5.70
2022-08-18T03:07:43.571Z,6.03
2022-08-18T03:10:31.815Z,5.40
2022-08-18T03:13:00.238Z,6.77
2022-08-18T03:15:28.199Z,6.50
2022-08-18T03:17:58.297Z,5.93
2022-08-18T03:20:31.028Z,6.73
2022-08-18T03:22:59.342Z,5.80
2022-08-18T03:25:27.270Z,5.63
2022-08-18T03:27:55.159Z,6.23
2022-08-18T03:30:23.598Z,6.10
2022-08-18T03:32:52.226Z,6.73
2022-08-18T03:35:21.612Z,5.90
2022-08-18T03:37:49.434Z,6.07
2022-08-18T03:40:17.510Z,6.10
2022-08-18T03:42:45.458Z,5.97
2022-08-18T03:45:17.715Z,6.23
2022-08-18T03:47:46.582Z,6.20
2022-08-18T03:50:14.498Z,6.27
2022-08-18T03:52:43.744Z,6.20
2022-08-18T03:55:11.915Z,5.97
2022-08-18T03:57:39.772Z,6.57
2022-08-18T04:00:09.986Z,6.23
2022-08-18T04:02:37.840Z,6.33
2022-08-18T04:05:07.423Z,6.33
2022-08-18T04:07:35.372Z,6.70
2022-08-18T04:10:05.083Z,5.90
2022-08-18T04:12:32.923Z,6.77
2022-08-18T04:15:00.781Z,6.23
2022-08-18T04:17:29.002Z,6.73
2022-08-18T04:19:57.681Z,7.17
2022-08-18T04:22:26.386Z,6.23
2022-08-18T04:24:55.604Z,7.20
2022-08-18T04:27:27.097Z,6.70
2022-08-18T04:29:56.673Z,6.17
2022-08-18T04:32:29.949Z,6.47
2022-08-18T04:34:58.508Z,6.60
2022-08-18T04:37:32.365Z,6.60
2022-08-18T04:40:01.168Z,7.17
2022-08-18T04:42:30.438Z,6.23
2022-08-18T04:44:58.773Z,6.93
2022-08-18T04:47:26.726Z,6.77
2022-08-18T04:49:54.732Z,7.13
2022-08-18T04:52:41.977Z,6.73
2022-08-18T04:55:11.431Z,6.33
2022-08-18T04:57:42.528Z,7.30
2022-08-18T05:00:12.553Z,6.77
2022-08-18T05:02:40.684Z,7.27
2022-08-18T05:05:09.699Z,7.00
2022-08-18T05:07:37.575Z,6.83
2022-08-18T05:10:06.260Z,6.70
2022-08-18T05:12:34.256Z,6.73
2022-08-18T05:15:03.621Z,7.33
2022-08-18T05:17:32.030Z,6.60
2022-08-18T05:20:00.971Z,7.00
2022-08-18T05:22:31.551Z,6.73
2022-08-18T05:25:00.900Z,7.50
2022-08-18T05:27:33.283Z,7.53
2022-08-18T05:30:01.145Z,8.60
2022-08-18T05:32:48.754Z,7.40
2022-08-18T05:35:23.265Z,7.00
2022-08-18T05:38:21.081Z,7.03
2022-08-18T05:41:03.576Z,7.03
2022-08-18T05:43:31.737Z,8.07
2022-08-18T05:46:02.563Z,7.53
2022-08-18T05:48:32.153Z,7.13
2022-08-18T05:51:04.736Z,7.77
2022-08-18T05:53:47.422Z,7.40
2022-08-18T05:56:35.707Z,7.10
2022-08-18T05:59:04.609Z,7.00
2022-08-18T06:01:41.388Z,7.77
2022-08-18T06:04:27.165Z,7.13
2022-08-18T06:06:57.784Z,7.33
2022-08-18T06:09:29.836Z,7.57
2022-08-18T06:12:09.053Z,7.47
2022-08-18T06:14:39.267Z,7.40
2022-08-18T06:17:19.363Z,7.03
2022-08-18T06:19:58.275Z,7.20
2022-08-18T06:22:33.905Z,7.30
2022-08-18T06:25:08.379Z,7.17
2022-08-18T06:27:51.141Z,6.70
2022-08-18T06:30:25.448Z,7.53
2022-08-18T06:33:11.308Z,6.97
2022-08-18T06:35:46.903Z,6.80
2022-08-18T06:38:45.608Z,6.23
2022-08-18T06:41:37.968Z,6.63
2022-08-18T06:44:08.698Z,6.67
2022-08-18T06:46:48.188Z,6.63
2022-08-18T06:49:29.348Z,6.43
2022-08-18T06:51:58.593Z,6.07
2022-08-18T06:54:29.569Z,5.57
2022-08-18T06:56:59.124Z,5.57
2022-08-18T06:59:30.932Z,4.90
2022-08-18T07:02:02.602Z,5.13
2022-08-18T07:05:01.368Z,4.87
2022-08-18T07:07:39.597Z,5.10
2022-08-18T07:10:29.059Z,5.20
2022-08-18T07:13:16.496Z,5.13
2022-08-18T07:15:45.428Z,5.33
2022-08-18T07:18:14.314Z,5.23
2022-08-18T07:20:45.168Z,5.43
2022-08-18T07:23:25.753Z,5.67
2022-08-18T07:26:02.874Z,5.40
2022-08-18T07:28:34.232Z,5.63
2022-08-18T07:31:17.803Z,5.73
2022-08-18T07:33:51.777Z,5.40
2022-08-18T07:36:24.326Z,6.80
2022-08-18T07:38:59.497Z,6.13
2022-08-18T07:41:33.028Z,6.97
2022-08-18T07:44:13.983Z,6.67
2022-08-18T07:46:48.718Z,7.20
2022-08-18T07:49:22.315Z,6.77
2022-08-18T07:51:57.819Z,6.17
2022-08-18T07:54:50.102Z,7.00
2022-08-18T07:57:27.970Z,6.60
2022-08-18T08:00:04.770Z,6.53
2022-08-18T08:02:55.094Z,6.50
2022-08-18T08:05:40.887Z,5.77
2022-08-18T08:08:26.175Z,7.20
2022-08-18T08:11:10.867Z,6.73
2022-08-18T08:17:32.531Z,6.37
2022-08-18T08:20:17.387Z,6.73
2022-08-18T08:23:03.384Z,6.47
2022-08-18T08:25:53.123Z,7.00
2022-08-18T08:28:39.371Z,6.40
2022-08-18T08:31:35.883Z,5.90
2022-08-18T08:34:07.840Z,5.83
2022-08-18T08:36:40.188Z,6.20
2022-08-18T08:39:19.007Z,6.73
2022-08-18T08:41:51.382Z,6.50
2022-08-18T08:44:25.942Z,6.60
2022-08-18T08:47:00.021Z,6.77
2022-08-18T08:49:36.995Z,6.80
2022-08-18T08:52:10.211Z,7.13
2022-08-18T08:54:46.766Z,7.07
2022-08-18T08:57:16.856Z,6.13
2022-08-18T08:59:49.908Z,6.30
2022-08-18T09:02:48.122Z,7.00
2022-08-18T09:05:21.198Z,6.63
2022-08-18T09:08:17.298Z,7.00
2022-08-18T09:11:07.909Z,6.43
2022-08-18T09:14:25.832Z,6.47
2022-08-18T09:17:17.324Z,6.57
2022-08-18T09:20:09.333Z,7.27
2022-08-18T09:22:47.900Z,8.10
2022-08-18T09:25:34.739Z,7.87
2022-08-18T09:28:12.347Z,8.13
2022-08-18T09:30:47.448Z,8.00
2022-08-18T09:33:34.769Z,7.43
2022-08-18T09:36:25.634Z,7.67
2022-08-18T09:39:18.393Z,7.43
2022-08-18T09:41:52.733Z,7.53
2022-08-18T09:45:01.459Z,7.87
2022-08-18T09:48:10.088Z,6.77
2022-08-18T09:51:01.628Z,7.00
2022-08-18T09:53:38.239Z,7.27
2022-08-18T09:56:08.116Z,6.97
2022-08-18T09:58:58.685Z,7.17
2022-08-18T10:01:42.496Z,7.10
2022-08-18T10:04:32.175Z,6.77
2022-08-18T10:07:38.742Z,6.57
2022-08-18T10:11:01.118Z,7.40
2022-08-18T10:13:24.707Z,7.50
2022-08-18T10:16:16.650Z,6.70
2022-08-18T10:19:02.343Z,7.73
2022-08-18T10:21:53.737Z,7.60
2022-08-18T10:24:36.042Z,7.57
2022-08-18T10:27:09.928Z,8.47
2022-08-18T10:29:53.861Z,8.40
2022-08-18T10:32:38.975Z,7.60
2022-08-18T10:35:38.168Z,6.67
2022-08-18T10:38:12.949Z,6.77
2022-08-18T10:40:57.116Z,7.13
2022-08-18T10:43:45.731Z,7.50
2022-08-18T10:46:25.626Z,8.07
2022-08-18T10:49:17.395Z,8.00
2022-08-18T10:52:01.435Z,7.70
2022-08-18T10:54:51.164Z,8.17
2022-08-18T10:57:29.732Z,7.90
2022-08-18T11:00:03.627Z,8.07
2022-08-18T11:03:02.488Z,8.43
2022-08-18T11:05:36.675Z,7.87
2022-08-18T11:08:16.130Z,7.93
2022-08-18T11:11:05.923Z,7.70
2022-08-18T11:13:57.957Z,7.53
2022-08-18T11:16:38.797Z,7.33
2022-08-18T11:19:12.202Z,8.60
2022-08-18T11:21:43.919Z,7.47
2022-08-18T11:24:16.371Z,7.40
2022-08-18T11:26:52.658Z,7.83
2022-08-18T11:29:32.626Z,7.70
2022-08-18T11:32:05.252Z,7.27
2022-08-18T11:34:52.074Z,7.20
2022-08-18T11:37:26.964Z,7.70
2022-08-18T11:39:58.907Z,7.30
2022-08-18T11:42:33.637Z,7.33
2022-08-18T11:45:15.993Z,7.87
2022-08-18T11:48:03.217Z,7.53
2022-08-18T11:50:34.991Z,7.53
2022-08-18T11:53:18.859Z,8.23
2022-08-18T11:56:13.282Z,7.10
2022-08-18T11:58:46.029Z,7.73
2022-08-18T12:04:37.426Z,8.53
2022-08-18T12:07:09.310Z,9.07
2022-08-18T12:12:31.455Z,8.80
2022-08-18T12:15:10.487Z,8.90
2022-08-18T12:17:52.162Z,8.00
2022-08-18T12:20:22.150Z,8.57
2022-08-18T12:22:50.839Z,7.63
2022-08-18T12:28:10.916Z,11.97
2022-08-18T12:30:42.182Z,8.00
2022-08-18T12:35:59.862Z,7.87
2022-08-18T12:38:28.203Z,7.53
2022-08-18T12:40:57.084Z,7.47
2022-08-18T12:43:24.949Z,7.70
2022-08-18T12:46:00.882Z,8.20
2022-08-18T12:48:31.623Z,7.83
2022-08-18T12:51:00.962Z,7.93
2022-08-18T12:53:58.517Z,7.10
2022-08-18T12:56:25.436Z,6.10
2022-08-18T12:58:54.760Z,12.70
2022-08-18T13:01:23.467Z,9.07
2022-08-18T13:04:10.933Z,12.97
2022-08-18T13:06:59.463Z,14.33
2022-08-18T13:09:42.976Z,8.10
2022-08-18T13:12:19.664Z,6.83
2022-08-18T13:14:49.775Z,7.87
2022-08-18T13:17:30.589Z,8.17
2022-08-18T13:20:06.176Z,7.63
2022-08-18T13:22:35.907Z,9.43
2022-08-18T13:25:05.223Z,7.43
2022-08-18T13:27:35.348Z,7.77
2022-08-18T13:30:16.853Z,7.87
2022-08-18T13:33:00.351Z,8.13
2022-08-18T13:35:44.167Z,7.43
2022-08-18T13:38:14.482Z,7.10
2022-08-18T13:40:46.869Z,6.83
2022-08-18T13:43:15.803Z,7.77
2022-08-18T13:45:48.132Z,6.90
2022-08-18T13:48:21.481Z,6.90
2022-08-18T13:50:52.270Z,7.10
2022-08-18T13:53:21.805Z,7.17
2022-08-18T13:55:50.401Z,7.03
2022-08-18T13:58:20.874Z,6.37
2022-08-18T14:00:54.001Z,7.50
2022-08-18T14:03:38.520Z,6.20
2022-08-18T14:06:13.333Z,6.83
2022-08-18T14:08:42.241Z,7.50
2022-08-18T14:11:10.648Z,7.13
2022-08-18T14:13:43.871Z,7.60
2022-08-18T14:16:16.267Z,6.30
2022-08-18T14:19:09.455Z,7.43
2022-08-18T14:22:00.711Z,6.97
2022-08-18T14:24:48.915Z,6.90
2022-08-18T14:27:17.479Z,6.60
2022-08-18T14:29:47.947Z,7.23
2022-08-18T14:32:28.600Z,6.97
2022-08-18T14:35:00.516Z,8.33
2022-08-18T14:37:31.339Z,8.07
2022-08-18T14:40:02.535Z,5.83
2022-08-18T14:42:33.038Z,6.90
2022-08-18T14:45:18.100Z,7.37
2022-08-18T14:48:06.521Z,8.17
2022-08-18T14:50:35.267Z,7.70
2022-08-18T14:53:04.783Z,6.07
2022-08-18T14:55:32.838Z,6.30
2022-08-18T14:58:02.528Z,6.50
2022-08-18T15:00:30.573Z,7.57
2022-08-18T15:03:00.232Z,6.53
2022-08-18T15:05:33.717Z,6.87
2022-08-18T15:08:03.700Z,7.60
2022-08-18T15:10:34.220Z,6.67
2022-08-18T15:13:03.694Z,6.70
2022-08-18T15:15:42.226Z,7.87
2022-08-18T15:18:22.593Z,6.87
2022-08-18T15:21:10.346Z,6.77
2022-08-18T15:24:05.081Z,6.37
2022-08-18T15:26:44.333Z,6.80
2022-08-18T15:29:15.011Z,6.73
2022-08-18T15:31:50.804Z,5.90
2022-08-18T15:34:20.575Z,5.87
2022-08-18T15:36:49.425Z,8.73
2022-08-18T15:39:17.875Z,11.20
2022-08-18T15:41:49.325Z,5.77
2022-08-18T15:44:19.174Z,6.30
2022-08-18T15:46:53.025Z,6.17
2022-08-18T15:49:23.885Z,6.43
2022-08-18T15:51:52.493Z,5.90
2022-08-18T15:54:20.787Z,6.20
2022-08-18T15:56:57.794Z,6.90
2022-08-18T15:59:33.068Z,6.17
2022-08-18T16:02:11.460Z,6.13
2022-08-18T16:04:41.293Z,6.47
2022-08-18T16:07:11.034Z,6.27
2022-08-18T16:09:38.974Z,6.40
2022-08-18T16:12:11.244Z,6.50
2022-08-18T16:14:41.539Z,6.93
2022-08-18T16:17:23.482Z,7.07
2022-08-18T16:19:51.987Z,6.63
2022-08-18T16:22:19.961Z,9.87
2022-08-18T16:24:54.610Z,6.40
2022-08-18T16:27:24.961Z,7.23
2022-08-18T16:29:52.866Z,11.60
2022-08-18T16:32:20.703Z,6.03
2022-08-18T16:34:48.621Z,6.90
2022-08-18T16:39:49.509Z,6.53
2022-08-18T16:42:18.162Z,5.90
2022-08-18T16:44:47.515Z,6.47
2022-08-18T16:47:17.603Z,6.03
2022-08-18T16:49:48.516Z,5.57
2022-08-18T16:52:16.747Z,5.00
2022-08-18T16:54:46.319Z,5.50
2022-08-18T16:57:37.410Z,4.90
2022-08-18T17:00:41.284Z,6.20
2022-08-18T17:03:27.361Z,7.73
2022-08-18T17:06:00.835Z,7.00
2022-08-18T17:08:29.499Z,6.30
2022-08-18T17:10:57.868Z,6.63
2022-08-18T17:13:25.741Z,6.90
2022-08-18T17:15:54.978Z,9.43
2022-08-18T17:18:24.354Z,8.17
2022-08-18T17:20:52.734Z,7.20
2022-08-18T17:23:23.979Z,7.63
2022-08-18T17:25:52.523Z,7.93
2022-08-18T17:28:26.289Z,7.60
2022-08-18T17:30:55.685Z,8.00
2022-08-18T17:33:28.904Z,8.20
2022-08-18T17:36:02.359Z,9.30
2022-08-18T17:38:36.309Z,11.03
2022-08-18T17:41:06.251Z,10.90
2022-08-18T17:43:46.144Z,10.57
2022-08-18T17:46:27.365Z,12.07
2022-08-18T17:49:02.154Z,12.03
2022-08-18T17:51:34.673Z,12.10
2022-08-18T17:54:10.224Z,13.70
2022-08-18T17:56:43.387Z,16.00
2022-08-18T17:59:46.203Z,16.80
2022-08-18T18:02:18.283Z,16.57
2022-08-18T18:04:59.422Z,16.57
2022-08-18T18:07:30.141Z,15.83
2022-08-18T18:10:01.671Z,16.43
2022-08-18T18:12:32.103Z,16.33
2022-08-18T18:15:02.116Z,15.57
2022-08-18T18:17:37.598Z,16.13
2022-08-18T18:20:17.806Z,16.60
2022-08-18T18:22:48.576Z,16.33
2022-08-18T18:25:34.815Z,15.97
2022-08-18T18:28:02.893Z,16.53
2022-08-18T18:30:34.863Z,17.70
2022-08-18T18:33:14.099Z,16.40
2022-08-18T18:35:54.012Z,16.77
2022-08-18T18:38:33.457Z,17.80
2022-08-18T18:41:03.806Z,16.07
2022-08-18T18:43:38.812Z,14.63
2022-08-18T18:46:23.739Z,16.87
2022-08-18T18:49:07.506Z,15.43
2022-08-18T18:51:43.693Z,15.57
2022-08-18T18:54:23.596Z,15.80
2022-08-18T18:56:56.278Z,14.80
2022-08-18T18:59:38.725Z,15.53
2022-08-18T19:02:33.707Z,15.07
2022-08-18T19:05:17.631Z,15.40
2022-08-18T19:08:02.187Z,15.57
2022-08-18T19:10:36.978Z,14.30
2022-08-18T19:13:25.121Z,14.47
2022-08-18T19:16:23.849Z,13.97
2022-08-18T19:19:36.279Z,13.63
2022-08-18T19:22:04.423Z,13.13
2022-08-18T19:24:39.173Z,12.97
2022-08-18T19:27:12.380Z,13.43
2022-08-18T19:29:44.604Z,12.83
2022-08-18T19:32:16.848Z,12.40
2022-08-18T19:34:52.642Z,14.33
2022-08-18T19:37:32.363Z,14.57
2022-08-18T19:40:09.317Z,13.13
2022-08-18T19:42:45.143Z,12.53
2022-08-18T19:45:23.457Z,11.70
2022-08-18T19:47:57.374Z,12.87
2022-08-18T19:50:32.186Z,12.47
2022-08-18T19:53:32.794Z,11.57
2022-08-18T19:56:27.571Z,12.03
2022-08-18T19:59:19.588Z,11.90
2022-08-18T20:02:00.436Z,12.43
2022-08-18T20:04:47.635Z,12.23
2022-08-18T20:07:37.910Z,11.17
2022-08-18T20:10:28.118Z,11.73
2022-08-18T20:13:12.490Z,11.73
2022-08-18T20:16:00.042Z,11.30
2022-08-18T20:18:34.543Z,11.40
2022-08-18T20:21:33.985Z,11.10
2022-08-18T20:24:30.436Z,11.13
2022-08-18T20:27:16.309Z,10.87
2022-08-18T20:29:47.395Z,11.13
2022-08-18T20:32:21.191Z,11.33
2022-08-18T20:34:52.261Z,11.27
2022-08-18T20:37:25.541Z,11.73
2022-08-18T20:39:56.638Z,11.50
2022-08-18T20:42:55.819Z,12.50
2022-08-18T20:45:37.203Z,12.90
2022-08-18T20:48:32.632Z,11.90
2022-08-18T20:51:10.621Z,11.60
2022-08-18T20:54:03.318Z,12.27
2022-08-18T20:56:43.290Z,12.13
2022-08-18T20:59:19.546Z,12.37
2022-08-18T21:01:58.901Z,12.30
2022-08-18T21:04:42.836Z,12.20
2022-08-18T21:07:18.475Z,12.20
2022-08-18T21:10:12.777Z,12.80
2022-08-18T21:12:51.849Z,12.83
2022-08-18T21:15:24.271Z,13.80
2022-08-18T21:17:58.820Z,12.50
2022-08-18T21:20:28.472Z,12.53
2022-08-18T21:23:09.965Z,13.03
2022-08-18T21:25:42.017Z,13.53
2022-08-18T21:28:09.931Z,12.80
2022-08-18T21:30:39.388Z,13.07
2022-08-18T21:33:20.123Z,13.13
2022-08-18T21:35:48.419Z,13.40
2022-08-18T21:38:16.434Z,13.27
2022-08-18T21:40:47.917Z,12.67
2022-08-18T21:43:35.783Z,13.20
2022-08-18T21:46:05.192Z,12.43
2022-08-18T21:48:36.076Z,13.77
2022-08-18T21:51:03.968Z,13.73
2022-08-18T21:53:33.778Z,13.00
2022-08-18T21:56:02.621Z,12.83
2022-08-18T21:58:38.869Z,12.77
2022-08-18T22:01:14.004Z,12.43
2022-08-18T22:03:59.465Z,12.70
2022-08-18T22:06:35.997Z,12.13
2022-08-18T22:09:29.579Z,12.37
2022-08-18T22:12:37.676Z,12.20
2022-08-18T22:15:11.730Z,12.70
2022-08-18T22:17:52.812Z,12.70
2022-08-18T22:20:46.679Z,12.53
2022-08-18T22:23:54.934Z,12.63
2022-08-18T22:26:27.284Z,13.03
2022-08-18T22:29:03.926Z,12.47
2022-08-18T22:31:35.579Z,12.73
2022-08-18T22:34:07.446Z,12.93
2022-08-18T22:36:38.052Z,12.57
2022-08-18T22:39:10.264Z,13.07
2022-08-18T22:41:39.200Z,12.07
2022-08-18T22:44:08.099Z,13.63
2022-08-18T22:46:36.957Z,13.33
2022-08-18T22:49:06.489Z,13.67
2022-08-18T22:51:37.096Z,13.03
2022-08-18T22:54:08.347Z,13.20
2022-08-18T22:56:37.875Z,13.20
2022-08-18T22:59:13.979Z,13.33
2022-08-18T23:01:50.078Z,12.97
2022-08-18T23:04:22.226Z,12.73
2022-08-18T23:06:52.573Z,13.13
2022-08-18T23:09:23.526Z,13.07
2022-08-18T23:11:52.196Z,12.87
2022-08-18T23:14:20.340Z,12.37
2022-08-18T23:16:48.401Z,13.43
2022-08-18T23:19:17.531Z,12.87
2022-08-18T23:21:48.459Z,13.27
2022-08-18T23:24:22.492Z,12.70
2022-08-18T23:26:50.875Z,12.90
2022-08-18T23:29:19.825Z,12.40
2022-08-18T23:31:50.074Z,12.80
2022-08-18T23:34:19.275Z,13.37
2022-08-18T23:36:55.481Z,13.10
2022-08-18T23:39:23.884Z,12.13
2022-08-18T23:41:53.030Z,12.47
2022-08-18T23:44:21.254Z,12.60
2022-08-18T23:46:51.886Z,12.23
2022-08-18T23:49:19.875Z,12.70
2022-08-18T23:51:54.460Z,11.90
2022-08-18T23:54:24.426Z,12.27
2022-08-18T23:56:52.367Z,12.27
2022-08-18T23:59:22.619Z,12.17
